Airfield :
LOGIN :

Register | Disclaimer

   EN    FR    IT 

 










Legend :    VFR   Marginal VFR   IFR   Intensive IFR   Very Intensive IFR
Visi :
Ceiling :
>= 8 km
>= 3000ft
5 to 8 km
1000 to 3000 ft
1500m to 5 km
500 to 1000 ft
800 to 1500m
200 to 500 ft
< 800m
< 200 ft
Symbols :   Thunderstorms  Fog  Heavy snow  Heavy precipitations  Wind > 20 kt
SIGMETs :     Misc.  Thunderstorms  Icing  Turbulence  Mountain Waves  Volcanic Ashes







- Airport Elevation : 17 ft
- IATA code : GRS


LIRS - Grosseto

CURRENT METAR :
  • 211955Z 05002KT CAVOK 16/09 Q1013 RMK BKN FEW100 BKN200 VIS MIN 9999 WIND THR03 06002KT WIND THR21 04004KT BLU

EXPIRED METARs :
  • 211855Z 01002KT CAVOK 16/09 Q1014 RMK BKN FEW100 BKN170 VIS MIN 9999 WIND THR03 26002KT WIND THR21 VRB01KT BLU
  • 211755Z 23003KT CAVOK 18/10 Q1014

TAF TAF LIRS
Valid from the 21 at 21:00 until the 22 at 06:00 UTC


212000Z 2121/2206 02005KT CAVOK
No reported NOTAMs for that airfield.
3 SIGMETs reported for the Roma FIR (LIRR) :
 
Severe turbulence
LIRR SIGMET 6 VALID 212100/220000 LIIB
LIRR ROMA FIR SEV TURB FCST WI N4154 E00943 - N4131 E01022 - N4026 E01201 - N3853 E01424 - N3630 E01626 - N3631 E01128 - N3728 E01131 - N3900 E00758 - N4055 E00757 - N4118 E00816 - N4119 E00945 - N4154 E00943 SFC/FL080 STNR NC=
Severe turbulence
LIRR SIGMET 5 VALID 211700/212100 LIIB
LIRR ROMA FIR SEV TURB FCST WI N4154 E00943 - N4131 E01022 - N4026 E01201 - N3853 E01424 - N3630 E01626 - N3631 E01128 - N3728 E01131 - N3900 E00758 - N4055 E00757 - N4118 E00816 - N4119 E00945 - N4154 E00943 FL270/370 STNR NC=
Severe turbulence
LIRR SIGMET 4 VALID 211700/212100 LIIB
LIRR ROMA FIR SEV TURB FCST WI N4154 E00943 - N4131 E01022 - N4026 E01201 - N3853 E01424 - N3630 E01626 - N3631 E01128 - N3728 E01131 - N3900 E00758 - N4055 E00757 - N4118 E00816 - N4119 E00945 - N4154 E00943 SFC/FL080 STNR NC=



MET'MAP, your aeronautical weather chart ! - Copyright ORBIFLY December 2007 - Disclaimer

ORBIFLY MET'MAP TEAM :

Programming & Development : Alexandra Zaïnal
Concept & Development : Baudouin d'Aumeries
Co-Development & Prog : Marc-Olivier Méhu
Technical & hardware support : Manuel Goepfert

Contact : metmap@orbifly.com




SOURCES & CREDITS :

   NOAA